sensor_id;sensor_type;location;lat;lon;timestamp;P1;durP1;ratioP1;P2;durP2;ratioP2
18170;SDS011;9210;48.358;10.902;2023-03-23T00:02:23;15.57;;;7.63;;
18170;SDS011;9210;48.358;10.902;2023-03-23T00:04:51;13.40;;;7.67;;
18170;SDS011;9210;48.358;10.902;2023-03-23T00:07:18;13.60;;;7.80;;
18170;SDS011;9210;48.358;10.902;2023-03-23T00:09:47;13.80;;;7.00;;
18170;SDS011;9210;48.358;10.902;2023-03-23T00:12:18;14.40;;;7.73;;
18170;SDS011;9210;48.358;10.902;2023-03-23T00:14:46;14.57;;;7.37;;
18170;SDS011;9210;48.358;10.902;2023-03-23T00:17:19;16.43;;;7.80;;
18170;SDS011;9210;48.358;10.902;2023-03-23T00:19:47;13.53;;;6.90;;
18170;SDS011;9210;48.358;10.902;2023-03-23T00:22:15;12.17;;;7.20;;
18170;SDS011;9210;48.358;10.902;2023-03-23T00:24:44;14.87;;;6.90;;
18170;SDS011;9210;48.358;10.902;2023-03-23T00:27:12;12.43;;;7.83;;
18170;SDS011;9210;48.358;10.902;2023-03-23T00:29:41;16.97;;;7.63;;
18170;SDS011;9210;48.358;10.902;2023-03-23T00:32:10;15.83;;;7.43;;
18170;SDS011;9210;48.358;10.902;2023-03-23T00:34:39;13.43;;;7.23;;
18170;SDS011;9210;48.358;10.902;2023-03-23T00:37:09;13.57;;;7.57;;
18170;SDS011;9210;48.358;10.902;2023-03-23T00:39:38;14.23;;;7.77;;
18170;SDS011;9210;48.358;10.902;2023-03-23T00:42:12;13.00;;;7.30;;
18170;SDS011;9210;48.358;10.902;2023-03-23T00:44:39;12.80;;;7.43;;
18170;SDS011;9210;48.358;10.902;2023-03-23T00:47:07;15.23;;;7.53;;
18170;SDS011;9210;48.358;10.902;2023-03-23T00:49:36;13.10;;;7.40;;
18170;SDS011;9210;48.358;10.902;2023-03-23T00:52:04;14.00;;;7.20;;
18170;SDS011;9210;48.358;10.902;2023-03-23T00:54:33;15.33;;;8.37;;
18170;SDS011;9210;48.358;10.902;2023-03-23T00:57:03;14.53;;;6.97;;
18170;SDS011;9210;48.358;10.902;2023-03-23T00:59:31;13.53;;;7.27;;
18170;SDS011;9210;48.358;10.902;2023-03-23T01:01:59;10.83;;;6.83;;
18170;SDS011;9210;48.358;10.902;2023-03-23T01:04:26;14.17;;;7.40;;
18170;SDS011;9210;48.358;10.902;2023-03-23T01:06:56;14.53;;;7.33;;
18170;SDS011;9210;48.358;10.902;2023-03-23T01:09:25;14.67;;;6.77;;
18170;SDS011;9210;48.358;10.902;2023-03-23T01:11:54;13.07;;;7.33;;
18170;SDS011;9210;48.358;10.902;2023-03-23T01:14:22;11.83;;;6.90;;
18170;SDS011;9210;48.358;10.902;2023-03-23T01:16:50;12.57;;;7.27;;
18170;SDS011;9210;48.358;10.902;2023-03-23T01:19:17;10.93;;;6.60;;
18170;SDS011;9210;48.358;10.902;2023-03-23T01:21:45;14.27;;;7.00;;
18170;SDS011;9210;48.358;10.902;2023-03-23T01:24:12;13.20;;;7.23;;
18170;SDS011;9210;48.358;10.902;2023-03-23T01:26:39;13.83;;;7.33;;
18170;SDS011;9210;48.358;10.902;2023-03-23T01:29:08;12.30;;;7.10;;
18170;SDS011;9210;48.358;10.902;2023-03-23T01:31:35;10.83;;;7.10;;
18170;SDS011;9210;48.358;10.902;2023-03-23T01:34:04;12.93;;;6.93;;
18170;SDS011;9210;48.358;10.902;2023-03-23T01:36:33;11.83;;;6.47;;
18170;SDS011;9210;48.358;10.902;2023-03-23T01:39:03;12.47;;;7.10;;
18170;SDS011;9210;48.358;10.902;2023-03-23T01:41:32;14.13;;;6.80;;
18170;SDS011;9210;48.358;10.902;2023-03-23T01:44:04;14.03;;;7.40;;
18170;SDS011;9210;48.358;10.902;2023-03-23T01:47:00;12.57;;;6.83;;
18170;SDS011;9210;48.358;10.902;2023-03-23T01:49:27;14.40;;;7.40;;
18170;SDS011;9210;48.358;10.902;2023-03-23T01:51:57;12.37;;;7.13;;
18170;SDS011;9210;48.358;10.902;2023-03-23T01:54:26;13.13;;;7.00;;
18170;SDS011;9210;48.358;10.902;2023-03-23T01:56:58;11.57;;;6.70;;
18170;SDS011;9210;48.358;10.902;2023-03-23T01:59:26;10.77;;;6.47;;
18170;SDS011;9210;48.358;10.902;2023-03-23T02:02:20;10.70;;;6.20;;
18170;SDS011;9210;48.358;10.902;2023-03-23T02:04:48;12.60;;;7.03;;
18170;SDS011;9210;48.358;10.902;2023-03-23T02:07:17;10.90;;;6.53;;
18170;SDS011;9210;48.358;10.902;2023-03-23T02:09:45;11.30;;;6.97;;
18170;SDS011;9210;48.358;10.902;2023-03-23T02:12:13;11.80;;;7.00;;
18170;SDS011;9210;48.358;10.902;2023-03-23T02:14:40;11.30;;;6.30;;
18170;SDS011;9210;48.358;10.902;2023-03-23T02:17:09;14.57;;;6.90;;
18170;SDS011;9210;48.358;10.902;2023-03-23T02:19:45;14.90;;;6.93;;
18170;SDS011;9210;48.358;10.902;2023-03-23T02:22:26;10.60;;;6.37;;
18170;SDS011;9210;48.358;10.902;2023-03-23T02:25:03;10.60;;;6.10;;
18170;SDS011;9210;48.358;10.902;2023-03-23T02:27:40;11.77;;;6.70;;
18170;SDS011;9210;48.358;10.902;2023-03-23T02:30:22;10.47;;;5.83;;
18170;SDS011;9210;48.358;10.902;2023-03-23T02:35:42;12.10;;;5.87;;
18170;SDS011;9210;48.358;10.902;2023-03-23T02:38:12;9.47;;;5.60;;
18170;SDS011;9210;48.358;10.902;2023-03-23T02:40:41;8.50;;;5.83;;
18170;SDS011;9210;48.358;10.902;2023-03-23T02:43:10;10.77;;;6.03;;
18170;SDS011;9210;48.358;10.902;2023-03-23T02:45:39;9.50;;;6.03;;
18170;SDS011;9210;48.358;10.902;2023-03-23T02:48:08;10.73;;;6.00;;
18170;SDS011;9210;48.358;10.902;2023-03-23T02:50:37;11.20;;;5.50;;
18170;SDS011;9210;48.358;10.902;2023-03-23T02:53:10;11.60;;;6.07;;
18170;SDS011;9210;48.358;10.902;2023-03-23T02:55:39;10.70;;;5.70;;
18170;SDS011;9210;48.358;10.902;2023-03-23T02:58:09;11.30;;;5.60;;
18170;SDS011;9210;48.358;10.902;2023-03-23T03:00:38;9.73;;;6.10;;
18170;SDS011;9210;48.358;10.902;2023-03-23T03:03:07;10.20;;;5.60;;
18170;SDS011;9210;48.358;10.902;2023-03-23T03:05:38;11.60;;;6.13;;
18170;SDS011;9210;48.358;10.902;2023-03-23T03:08:11;10.10;;;5.77;;
18170;SDS011;9210;48.358;10.902;2023-03-23T03:10:42;9.63;;;5.43;;
18170;SDS011;9210;48.358;10.902;2023-03-23T03:13:11;9.40;;;5.50;;
18170;SDS011;9210;48.358;10.902;2023-03-23T03:15:43;14.97;;;5.77;;
18170;SDS011;9210;48.358;10.902;2023-03-23T03:18:13;11.10;;;5.80;;
18170;SDS011;9210;48.358;10.902;2023-03-23T03:20:43;9.77;;;5.07;;
18170;SDS011;9210;48.358;10.902;2023-03-23T03:23:13;9.63;;;5.67;;
18170;SDS011;9210;48.358;10.902;2023-03-23T03:25:43;8.70;;;5.87;;
18170;SDS011;9210;48.358;10.902;2023-03-23T03:28:15;11.50;;;6.23;;
18170;SDS011;9210;48.358;10.902;2023-03-23T03:30:47;11.83;;;5.63;;
18170;SDS011;9210;48.358;10.902;2023-03-23T03:33:16;11.47;;;5.43;;
18170;SDS011;9210;48.358;10.902;2023-03-23T03:35:46;12.20;;;6.10;;
18170;SDS011;9210;48.358;10.902;2023-03-23T03:38:16;10.20;;;5.00;;
18170;SDS011;9210;48.358;10.902;2023-03-23T03:40:44;9.27;;;5.63;;
18170;SDS011;9210;48.358;10.902;2023-03-23T03:43:11;11.47;;;5.93;;
18170;SDS011;9210;48.358;10.902;2023-03-23T03:45:39;9.93;;;5.83;;
18170;SDS011;9210;48.358;10.902;2023-03-23T03:48:07;11.03;;;5.97;;
18170;SDS011;9210;48.358;10.902;2023-03-23T03:50:35;11.03;;;5.93;;
18170;SDS011;9210;48.358;10.902;2023-03-23T03:53:02;9.17;;;5.70;;
18170;SDS011;9210;48.358;10.902;2023-03-23T03:55:32;11.90;;;5.87;;
18170;SDS011;9210;48.358;10.902;2023-03-23T03:58:03;9.77;;;5.83;;
18170;SDS011;9210;48.358;10.902;2023-03-23T04:01:01;11.47;;;6.10;;
18170;SDS011;9210;48.358;10.902;2023-03-23T04:03:33;14.10;;;6.10;;
18170;SDS011;9210;48.358;10.902;2023-03-23T04:06:04;8.77;;;5.93;;
18170;SDS011;9210;48.358;10.902;2023-03-23T04:08:33;11.17;;;5.97;;
18170;SDS011;9210;48.358;10.902;2023-03-23T04:11:02;10.17;;;6.50;;
18170;SDS011;9210;48.358;10.902;2023-03-23T04:13:31;10.20;;;6.00;;
18170;SDS011;9210;48.358;10.902;2023-03-23T04:16:03;10.57;;;5.77;;
18170;SDS011;9210;48.358;10.902;2023-03-23T04:18:32;10.67;;;5.77;;
18170;SDS011;9210;48.358;10.902;2023-03-23T04:21:00;10.33;;;5.53;;
18170;SDS011;9210;48.358;10.902;2023-03-23T04:23:29;10.17;;;5.80;;
18170;SDS011;9210;48.358;10.902;2023-03-23T04:26:02;11.70;;;6.27;;
18170;SDS011;9210;48.358;10.902;2023-03-23T04:28:37;12.03;;;6.33;;
18170;SDS011;9210;48.358;10.902;2023-03-23T04:31:32;10.27;;;5.93;;
18170;SDS011;9210;48.358;10.902;2023-03-23T04:34:19;10.30;;;5.87;;
18170;SDS011;9210;48.358;10.902;2023-03-23T04:36:49;9.87;;;6.13;;
18170;SDS011;9210;48.358;10.902;2023-03-23T04:39:21;8.73;;;5.80;;
18170;SDS011;9210;48.358;10.902;2023-03-23T04:41:52;9.77;;;5.93;;
18170;SDS011;9210;48.358;10.902;2023-03-23T04:44:24;11.77;;;6.03;;
18170;SDS011;9210;48.358;10.902;2023-03-23T04:47:10;12.13;;;6.60;;
18170;SDS011;9210;48.358;10.902;2023-03-23T04:49:47;9.13;;;5.37;;
18170;SDS011;9210;48.358;10.902;2023-03-23T04:52:24;11.23;;;6.30;;
18170;SDS011;9210;48.358;10.902;2023-03-23T04:54:55;12.30;;;5.90;;
18170;SDS011;9210;48.358;10.902;2023-03-23T04:57:25;11.43;;;5.90;;
18170;SDS011;9210;48.358;10.902;2023-03-23T05:00:16;13.37;;;6.30;;
18170;SDS011;9210;48.358;10.902;2023-03-23T05:02:51;10.17;;;5.53;;
18170;SDS011;9210;48.358;10.902;2023-03-23T05:05:23;10.90;;;6.30;;
18170;SDS011;9210;48.358;10.902;2023-03-23T05:07:55;10.53;;;5.80;;
18170;SDS011;9210;48.358;10.902;2023-03-23T05:10:25;8.97;;;5.40;;
18170;SDS011;9210;48.358;10.902;2023-03-23T05:12:59;12.57;;;6.30;;
18170;SDS011;9210;48.358;10.902;2023-03-23T05:15:26;8.43;;;5.47;;
18170;SDS011;9210;48.358;10.902;2023-03-23T05:17:55;9.37;;;5.73;;
18170;SDS011;9210;48.358;10.902;2023-03-23T05:20:24;9.47;;;5.03;;
18170;SDS011;9210;48.358;10.902;2023-03-23T05:23:17;9.70;;;5.37;;
18170;SDS011;9210;48.358;10.902;2023-03-23T05:25:52;12.90;;;5.80;;
18170;SDS011;9210;48.358;10.902;2023-03-23T05:28:21;9.03;;;5.27;;
18170;SDS011;9210;48.358;10.902;2023-03-23T05:30:55;10.20;;;5.30;;
18170;SDS011;9210;48.358;10.902;2023-03-23T05:33:27;8.93;;;5.50;;
18170;SDS011;9210;48.358;10.902;2023-03-23T05:36:03;11.30;;;5.63;;
18170;SDS011;9210;48.358;10.902;2023-03-23T05:38:42;8.73;;;5.40;;
18170;SDS011;9210;48.358;10.902;2023-03-23T05:41:15;8.77;;;5.17;;
18170;SDS011;9210;48.358;10.902;2023-03-23T05:43:44;10.63;;;5.37;;
18170;SDS011;9210;48.358;10.902;2023-03-23T05:46:33;8.80;;;5.10;;
18170;SDS011;9210;48.358;10.902;2023-03-23T05:49:01;10.87;;;5.03;;
18170;SDS011;9210;48.358;10.902;2023-03-23T05:51:35;7.63;;;4.83;;
18170;SDS011;9210;48.358;10.902;2023-03-23T05:54:03;8.60;;;4.67;;
18170;SDS011;9210;48.358;10.902;2023-03-23T05:56:30;10.10;;;5.00;;
18170;SDS011;9210;48.358;10.902;2023-03-23T05:59:10;10.97;;;5.00;;
18170;SDS011;9210;48.358;10.902;2023-03-23T06:01:39;8.17;;;4.33;;
18170;SDS011;9210;48.358;10.902;2023-03-23T06:04:06;8.67;;;5.03;;
18170;SDS011;9210;48.358;10.902;2023-03-23T06:06:44;9.40;;;4.70;;
18170;SDS011;9210;48.358;10.902;2023-03-23T06:09:13;9.33;;;4.93;;
18170;SDS011;9210;48.358;10.902;2023-03-23T06:12:17;7.60;;;4.47;;
18170;SDS011;9210;48.358;10.902;2023-03-23T06:15:19;9.50;;;4.67;;
18170;SDS011;9210;48.358;10.902;2023-03-23T06:18:09;8.27;;;4.60;;
18170;SDS011;9210;48.358;10.902;2023-03-23T06:20:45;9.50;;;4.40;;
18170;SDS011;9210;48.358;10.902;2023-03-23T06:23:24;10.40;;;4.93;;
18170;SDS011;9210;48.358;10.902;2023-03-23T06:25:53;10.27;;;4.63;;
18170;SDS011;9210;48.358;10.902;2023-03-23T06:28:22;9.77;;;4.80;;
18170;SDS011;9210;48.358;10.902;2023-03-23T06:30:52;8.67;;;4.83;;
18170;SDS011;9210;48.358;10.902;2023-03-23T06:33:19;10.50;;;5.03;;
18170;SDS011;9210;48.358;10.902;2023-03-23T06:36:07;9.30;;;4.50;;
18170;SDS011;9210;48.358;10.902;2023-03-23T06:38:48;8.37;;;4.63;;
18170;SDS011;9210;48.358;10.902;2023-03-23T06:41:19;12.43;;;4.37;;
18170;SDS011;9210;48.358;10.902;2023-03-23T06:43:47;7.77;;;4.40;;
18170;SDS011;9210;48.358;10.902;2023-03-23T06:46:25;9.00;;;4.63;;
18170;SDS011;9210;48.358;10.902;2023-03-23T06:48:53;11.50;;;4.70;;
18170;SDS011;9210;48.358;10.902;2023-03-23T06:51:28;9.30;;;4.67;;
18170;SDS011;9210;48.358;10.902;2023-03-23T06:53:57;8.63;;;4.53;;
18170;SDS011;9210;48.358;10.902;2023-03-23T06:56:28;9.43;;;4.50;;
18170;SDS011;9210;48.358;10.902;2023-03-23T06:58:56;9.03;;;4.63;;
18170;SDS011;9210;48.358;10.902;2023-03-23T07:01:25;7.47;;;4.13;;
18170;SDS011;9210;48.358;10.902;2023-03-23T07:03:58;9.27;;;4.47;;
18170;SDS011;9210;48.358;10.902;2023-03-23T07:06:35;12.33;;;4.77;;
18170;SDS011;9210;48.358;10.902;2023-03-23T07:09:06;8.37;;;4.60;;
18170;SDS011;9210;48.358;10.902;2023-03-23T07:11:34;9.90;;;4.73;;
18170;SDS011;9210;48.358;10.902;2023-03-23T07:14:09;9.07;;;4.30;;
18170;SDS011;9210;48.358;10.902;2023-03-23T07:16:40;9.83;;;4.43;;
18170;SDS011;9210;48.358;10.902;2023-03-23T07:19:08;11.20;;;4.50;;
18170;SDS011;9210;48.358;10.902;2023-03-23T07:21:36;11.50;;;4.40;;
18170;SDS011;9210;48.358;10.902;2023-03-23T07:24:04;8.43;;;4.10;;
18170;SDS011;9210;48.358;10.902;2023-03-23T07:26:57;6.73;;;4.03;;
18170;SDS011;9210;48.358;10.902;2023-03-23T07:29:25;8.90;;;4.53;;
18170;SDS011;9210;48.358;10.902;2023-03-23T07:32:06;12.00;;;4.90;;
18170;SDS011;9210;48.358;10.902;2023-03-23T07:34:33;8.60;;;4.70;;
18170;SDS011;9210;48.358;10.902;2023-03-23T07:37:22;10.17;;;4.70;;
18170;SDS011;9210;48.358;10.902;2023-03-23T07:39:50;12.17;;;4.50;;
18170;SDS011;9210;48.358;10.902;2023-03-23T07:42:18;9.03;;;4.77;;
18170;SDS011;9210;48.358;10.902;2023-03-23T07:44:49;9.57;;;4.77;;
18170;SDS011;9210;48.358;10.902;2023-03-23T07:47:17;7.60;;;4.53;;
18170;SDS011;9210;48.358;10.902;2023-03-23T07:49:47;10.40;;;4.87;;
18170;SDS011;9210;48.358;10.902;2023-03-23T07:52:29;9.00;;;4.83;;
18170;SDS011;9210;48.358;10.902;2023-03-23T07:54:58;8.03;;;4.63;;
18170;SDS011;9210;48.358;10.902;2023-03-23T07:57:40;8.80;;;5.07;;
18170;SDS011;9210;48.358;10.902;2023-03-23T08:00:09;10.50;;;4.73;;
18170;SDS011;9210;48.358;10.902;2023-03-23T08:02:42;9.03;;;4.67;;
18170;SDS011;9210;48.358;10.902;2023-03-23T08:05:27;11.47;;;4.67;;
18170;SDS011;9210;48.358;10.902;2023-03-23T08:08:13;12.57;;;4.43;;
18170;SDS011;9210;48.358;10.902;2023-03-23T08:10:43;6.63;;;4.07;;
18170;SDS011;9210;48.358;10.902;2023-03-23T08:13:33;8.73;;;4.30;;
18170;SDS011;9210;48.358;10.902;2023-03-23T08:16:12;8.23;;;4.07;;
18170;SDS011;9210;48.358;10.902;2023-03-23T08:19:04;12.13;;;4.37;;
18170;SDS011;9210;48.358;10.902;2023-03-23T08:21:45;7.50;;;4.07;;
18170;SDS011;9210;48.358;10.902;2023-03-23T08:24:30;8.57;;;3.80;;
18170;SDS011;9210;48.358;10.902;2023-03-23T08:27:21;7.97;;;4.07;;
18170;SDS011;9210;48.358;10.902;2023-03-23T08:30:12;8.43;;;3.80;;
18170;SDS011;9210;48.358;10.902;2023-03-23T08:32:58;6.07;;;3.50;;
18170;SDS011;9210;48.358;10.902;2023-03-23T08:35:53;6.60;;;3.60;;
18170;SDS011;9210;48.358;10.902;2023-03-23T08:38:30;5.55;;;2.97;;
18170;SDS011;9210;48.358;10.902;2023-03-23T08:41:14;5.45;;;2.88;;
18170;SDS011;9210;48.358;10.902;2023-03-23T08:43:52;5.18;;;2.80;;
18170;SDS011;9210;48.358;10.902;2023-03-23T08:46:28;5.43;;;2.13;;
18170;SDS011;9210;48.358;10.902;2023-03-23T08:49:13;4.72;;;2.00;;
18170;SDS011;9210;48.358;10.902;2023-03-23T08:52:03;3.90;;;1.70;;
18170;SDS011;9210;48.358;10.902;2023-03-23T08:54:51;6.07;;;2.10;;
18170;SDS011;9210;48.358;10.902;2023-03-23T08:57:48;5.22;;;1.50;;
18170;SDS011;9210;48.358;10.902;2023-03-23T09:00:32;2.90;;;1.45;;
18170;SDS011;9210;48.358;10.902;2023-03-23T09:03:22;2.15;;;1.38;;
18170;SDS011;9210;48.358;10.902;2023-03-23T09:06:19;2.97;;;1.58;;
18170;SDS011;9210;48.358;10.902;2023-03-23T09:08:49;3.92;;;1.50;;
18170;SDS011;9210;48.358;10.902;2023-03-23T09:11:16;4.55;;;1.52;;
18170;SDS011;9210;48.358;10.902;2023-03-23T09:13:44;3.10;;;1.35;;
18170;SDS011;9210;48.358;10.902;2023-03-23T09:16:12;3.03;;;1.30;;
18170;SDS011;9210;48.358;10.902;2023-03-23T09:18:39;2.10;;;1.33;;
18170;SDS011;9210;48.358;10.902;2023-03-23T09:21:07;3.15;;;1.73;;
18170;SDS011;9210;48.358;10.902;2023-03-23T09:23:34;2.70;;;1.50;;
18170;SDS011;9210;48.358;10.902;2023-03-23T09:26:03;5.07;;;1.65;;
18170;SDS011;9210;48.358;10.902;2023-03-23T09:28:31;2.47;;;1.60;;
18170;SDS011;9210;48.358;10.902;2023-03-23T09:30:58;3.10;;;1.70;;
18170;SDS011;9210;48.358;10.902;2023-03-23T09:33:26;3.95;;;1.60;;
18170;SDS011;9210;48.358;10.902;2023-03-23T09:35:54;4.38;;;1.60;;
18170;SDS011;9210;48.358;10.902;2023-03-23T09:38:21;2.83;;;1.50;;
18170;SDS011;9210;48.358;10.902;2023-03-23T09:40:52;3.03;;;1.33;;
18170;SDS011;9210;48.358;10.902;2023-03-23T09:43:31;4.13;;;1.30;;
18170;SDS011;9210;48.358;10.902;2023-03-23T09:46:07;2.13;;;1.40;;
18170;SDS011;9210;48.358;10.902;2023-03-23T09:48:42;2.90;;;1.60;;
18170;SDS011;9210;48.358;10.902;2023-03-23T09:51:13;2.60;;;1.40;;
18170;SDS011;9210;48.358;10.902;2023-03-23T09:53:44;2.78;;;1.52;;
18170;SDS011;9210;48.358;10.902;2023-03-23T09:56:14;2.67;;;1.55;;
18170;SDS011;9210;48.358;10.902;2023-03-23T09:58:46;4.30;;;1.40;;
18170;SDS011;9210;48.358;10.902;2023-03-23T10:01:17;2.65;;;1.50;;
18170;SDS011;9210;48.358;10.902;2023-03-23T10:03:46;2.72;;;1.20;;
18170;SDS011;9210;48.358;10.902;2023-03-23T10:06:15;2.72;;;1.50;;
18170;SDS011;9210;48.358;10.902;2023-03-23T10:08:44;2.00;;;1.40;;
18170;SDS011;9210;48.358;10.902;2023-03-23T10:11:14;2.83;;;1.10;;
18170;SDS011;9210;48.358;10.902;2023-03-23T10:13:59;2.53;;;1.38;;
18170;SDS011;9210;48.358;10.902;2023-03-23T10:16:31;2.38;;;1.50;;
18170;SDS011;9210;48.358;10.902;2023-03-23T10:19:01;3.03;;;1.27;;
18170;SDS011;9210;48.358;10.902;2023-03-23T10:21:30;4.45;;;1.20;;
18170;SDS011;9210;48.358;10.902;2023-03-23T10:24:01;3.15;;;1.70;;
18170;SDS011;9210;48.358;10.902;2023-03-23T10:26:33;2.58;;;1.50;;
18170;SDS011;9210;48.358;10.902;2023-03-23T10:29:09;3.33;;;1.50;;
18170;SDS011;9210;48.358;10.902;2023-03-23T10:31:39;4.60;;;1.80;;
18170;SDS011;9210;48.358;10.902;2023-03-23T10:34:09;1.90;;;1.35;;
18170;SDS011;9210;48.358;10.902;2023-03-23T10:36:39;2.22;;;1.30;;
18170;SDS011;9210;48.358;10.902;2023-03-23T10:39:09;2.15;;;1.30;;
18170;SDS011;9210;48.358;10.902;2023-03-23T10:41:38;2.47;;;1.40;;
18170;SDS011;9210;48.358;10.902;2023-03-23T10:44:15;4.22;;;1.30;;
18170;SDS011;9210;48.358;10.902;2023-03-23T10:46:45;2.90;;;1.45;;
18170;SDS011;9210;48.358;10.902;2023-03-23T10:49:15;6.45;;;1.92;;
18170;SDS011;9210;48.358;10.902;2023-03-23T10:51:46;3.53;;;1.65;;
18170;SDS011;9210;48.358;10.902;2023-03-23T10:54:24;3.30;;;1.38;;
18170;SDS011;9210;48.358;10.902;2023-03-23T10:56:53;2.65;;;1.50;;
18170;SDS011;9210;48.358;10.902;2023-03-23T10:59:30;3.40;;;1.40;;
18170;SDS011;9210;48.358;10.902;2023-03-23T11:02:00;6.15;;;1.38;;
18170;SDS011;9210;48.358;10.902;2023-03-23T11:04:28;4.20;;;1.60;;
18170;SDS011;9210;48.358;10.902;2023-03-23T11:06:59;3.38;;;1.70;;
18170;SDS011;9210;48.358;10.902;2023-03-23T11:09:34;4.55;;;1.50;;
18170;SDS011;9210;48.358;10.902;2023-03-23T11:12:02;2.10;;;1.35;;
18170;SDS011;9210;48.358;10.902;2023-03-23T11:14:32;3.75;;;1.55;;
18170;SDS011;9210;48.358;10.902;2023-03-23T11:17:04;4.35;;;2.13;;
18170;SDS011;9210;48.358;10.902;2023-03-23T11:19:33;4.57;;;1.65;;
18170;SDS011;9210;48.358;10.902;2023-03-23T11:22:05;3.15;;;1.77;;
18170;SDS011;9210;48.358;10.902;2023-03-23T11:24:33;2.20;;;1.23;;
18170;SDS011;9210;48.358;10.902;2023-03-23T11:27:01;3.53;;;1.52;;
18170;SDS011;9210;48.358;10.902;2023-03-23T11:29:34;4.28;;;1.80;;
18170;SDS011;9210;48.358;10.902;2023-03-23T11:32:04;3.42;;;1.50;;
18170;SDS011;9210;48.358;10.902;2023-03-23T11:34:33;2.53;;;1.40;;
18170;SDS011;9210;48.358;10.902;2023-03-23T11:37:02;2.75;;;1.15;;
18170;SDS011;9210;48.358;10.902;2023-03-23T11:39:31;1.50;;;1.00;;
18170;SDS011;9210;48.358;10.902;2023-03-23T11:41:59;1.65;;;1.15;;
18170;SDS011;9210;48.358;10.902;2023-03-23T11:44:31;3.13;;;1.40;;
18170;SDS011;9210;48.358;10.902;2023-03-23T11:47:01;4.35;;;1.40;;
18170;SDS011;9210;48.358;10.902;2023-03-23T11:49:35;3.20;;;1.27;;
18170;SDS011;9210;48.358;10.902;2023-03-23T11:52:08;3.55;;;1.63;;
18170;SDS011;9210;48.358;10.902;2023-03-23T11:54:38;2.85;;;1.38;;
18170;SDS011;9210;48.358;10.902;2023-03-23T11:57:09;2.78;;;1.40;;
18170;SDS011;9210;48.358;10.902;2023-03-23T11:59:38;1.88;;;1.30;;
18170;SDS011;9210;48.358;10.902;2023-03-23T12:02:17;4.68;;;1.38;;
18170;SDS011;9210;48.358;10.902;2023-03-23T12:07:39;1.92;;;1.27;;
18170;SDS011;9210;48.358;10.902;2023-03-23T12:10:13;3.13;;;1.30;;
18170;SDS011;9210;48.358;10.902;2023-03-23T12:12:44;2.20;;;1.25;;
18170;SDS011;9210;48.358;10.902;2023-03-23T12:15:15;3.05;;;1.15;;
18170;SDS011;9210;48.358;10.902;2023-03-23T12:17:47;3.15;;;1.30;;
18170;SDS011;9210;48.358;10.902;2023-03-23T12:20:20;2.47;;;1.13;;
18170;SDS011;9210;48.358;10.902;2023-03-23T12:25:39;3.30;;;1.23;;
18170;SDS011;9210;48.358;10.902;2023-03-23T12:28:13;2.35;;;1.27;;
18170;SDS011;9210;48.358;10.902;2023-03-23T12:30:43;4.05;;;1.25;;
18170;SDS011;9210;48.358;10.902;2023-03-23T12:33:20;1.90;;;1.08;;
18170;SDS011;9210;48.358;10.902;2023-03-23T12:35:52;4.78;;;1.30;;
18170;SDS011;9210;48.358;10.902;2023-03-23T12:38:26;3.40;;;1.27;;
18170;SDS011;9210;48.358;10.902;2023-03-23T12:41:02;3.47;;;1.27;;
18170;SDS011;9210;48.358;10.902;2023-03-23T12:43:34;2.55;;;1.50;;
18170;SDS011;9210;48.358;10.902;2023-03-23T12:46:08;2.75;;;1.20;;
18170;SDS011;9210;48.358;10.902;2023-03-23T12:48:40;1.95;;;1.10;;
18170;SDS011;9210;48.358;10.902;2023-03-23T12:51:11;2.40;;;1.13;;
18170;SDS011;9210;48.358;10.902;2023-03-23T12:53:41;1.85;;;1.20;;
18170;SDS011;9210;48.358;10.902;2023-03-23T12:56:11;2.35;;;1.25;;
18170;SDS011;9210;48.358;10.902;2023-03-23T12:58:41;4.13;;;1.40;;
18170;SDS011;9210;48.358;10.902;2023-03-23T13:01:10;1.75;;;1.15;;
18170;SDS011;9210;48.358;10.902;2023-03-23T13:03:42;3.28;;;1.05;;
18170;SDS011;9210;48.358;10.902;2023-03-23T13:06:12;5.10;;;1.45;;
18170;SDS011;9210;48.358;10.902;2023-03-23T13:08:44;3.88;;;1.50;;
18170;SDS011;9210;48.358;10.902;2023-03-23T13:11:15;2.40;;;1.20;;
18170;SDS011;9210;48.358;10.902;2023-03-23T13:13:45;2.70;;;1.23;;
18170;SDS011;9210;48.358;10.902;2023-03-23T13:16:19;3.38;;;1.30;;
18170;SDS011;9210;48.358;10.902;2023-03-23T13:18:52;2.03;;;1.30;;
18170;SDS011;9210;48.358;10.902;2023-03-23T13:21:23;2.22;;;1.38;;
18170;SDS011;9210;48.358;10.902;2023-03-23T13:23:53;3.20;;;1.27;;
18170;SDS011;9210;48.358;10.902;2023-03-23T13:26:22;3.03;;;1.60;;
18170;SDS011;9210;48.358;10.902;2023-03-23T13:28:57;2.65;;;1.20;;
18170;SDS011;9210;48.358;10.902;2023-03-23T13:31:27;2.60;;;1.27;;
18170;SDS011;9210;48.358;10.902;2023-03-23T13:34:02;2.83;;;1.60;;
18170;SDS011;9210;48.358;10.902;2023-03-23T13:36:32;3.53;;;1.30;;
18170;SDS011;9210;48.358;10.902;2023-03-23T13:39:01;3.75;;;1.30;;
18170;SDS011;9210;48.358;10.902;2023-03-23T13:41:32;2.50;;;1.35;;
18170;SDS011;9210;48.358;10.902;2023-03-23T13:44:14;5.13;;;1.42;;
18170;SDS011;9210;48.358;10.902;2023-03-23T13:46:53;3.63;;;1.52;;
18170;SDS011;9210;48.358;10.902;2023-03-23T13:49:22;5.00;;;1.40;;
18170;SDS011;9210;48.358;10.902;2023-03-23T13:52:02;2.90;;;1.48;;
18170;SDS011;9210;48.358;10.902;2023-03-23T13:54:39;2.50;;;1.30;;
18170;SDS011;9210;48.358;10.902;2023-03-23T13:57:21;2.85;;;1.67;;
18170;SDS011;9210;48.358;10.902;2023-03-23T13:59:55;2.90;;;1.48;;
18170;SDS011;9210;48.358;10.902;2023-03-23T14:02:31;2.92;;;1.40;;
18170;SDS011;9210;48.358;10.902;2023-03-23T14:05:11;3.33;;;1.67;;
18170;SDS011;9210;48.358;10.902;2023-03-23T14:07:56;3.05;;;1.38;;
18170;SDS011;9210;48.358;10.902;2023-03-23T14:10:25;3.13;;;1.40;;
18170;SDS011;9210;48.358;10.902;2023-03-23T14:12:58;3.72;;;1.55;;
18170;SDS011;9210;48.358;10.902;2023-03-23T14:15:27;2.55;;;1.50;;
18170;SDS011;9210;48.358;10.902;2023-03-23T14:17:55;3.83;;;1.45;;
18170;SDS011;9210;48.358;10.902;2023-03-23T14:20:26;3.88;;;1.58;;
18170;SDS011;9210;48.358;10.902;2023-03-23T14:22:54;3.97;;;1.70;;
18170;SDS011;9210;48.358;10.902;2023-03-23T14:25:25;3.35;;;1.80;;
18170;SDS011;9210;48.358;10.902;2023-03-23T14:27:53;4.10;;;1.52;;
18170;SDS011;9210;48.358;10.902;2023-03-23T14:30:21;3.90;;;1.70;;
18170;SDS011;9210;48.358;10.902;2023-03-23T14:32:50;2.47;;;1.50;;
18170;SDS011;9210;48.358;10.902;2023-03-23T14:35:20;3.80;;;1.70;;
18170;SDS011;9210;48.358;10.902;2023-03-23T14:37:49;2.97;;;1.63;;
18170;SDS011;9210;48.358;10.902;2023-03-23T14:40:17;4.50;;;1.60;;
18170;SDS011;9210;48.358;10.902;2023-03-23T14:42:45;2.10;;;1.40;;
18170;SDS011;9210;48.358;10.902;2023-03-23T14:45:14;3.00;;;1.45;;
18170;SDS011;9210;48.358;10.902;2023-03-23T14:47:42;3.78;;;1.70;;
18170;SDS011;9210;48.358;10.902;2023-03-23T14:50:22;3.10;;;1.80;;
18170;SDS011;9210;48.358;10.902;2023-03-23T14:52:51;3.50;;;1.83;;
18170;SDS011;9210;48.358;10.902;2023-03-23T14:55:19;5.78;;;1.80;;
18170;SDS011;9210;48.358;10.902;2023-03-23T14:57:47;4.88;;;1.85;;
18170;SDS011;9210;48.358;10.902;2023-03-23T15:00:15;2.97;;;1.50;;
18170;SDS011;9210;48.358;10.902;2023-03-23T15:02:44;4.53;;;1.77;;
18170;SDS011;9210;48.358;10.902;2023-03-23T15:05:13;2.38;;;1.65;;
18170;SDS011;9210;48.358;10.902;2023-03-23T15:07:42;4.47;;;2.00;;
18170;SDS011;9210;48.358;10.902;2023-03-23T15:10:14;3.10;;;1.60;;
18170;SDS011;9210;48.358;10.902;2023-03-23T15:12:43;2.78;;;1.70;;
18170;SDS011;9210;48.358;10.902;2023-03-23T15:15:16;2.88;;;1.60;;
18170;SDS011;9210;48.358;10.902;2023-03-23T15:17:46;3.50;;;1.63;;
18170;SDS011;9210;48.358;10.902;2023-03-23T15:20:19;3.05;;;1.60;;
18170;SDS011;9210;48.358;10.902;2023-03-23T15:22:48;3.55;;;1.95;;
18170;SDS011;9210;48.358;10.902;2023-03-23T15:25:19;3.33;;;1.70;;